sensor_id;sensor_type;location;lat;lon;timestamp;P1;durP1;ratioP1;P2;durP2;ratioP2
22160;SDS011;49035;48.812;11.762;2023-01-04T00:01:01;22.87;;;14.67;;
22160;SDS011;49035;48.812;11.762;2023-01-04T00:03:27;24.97;;;15.07;;
22160;SDS011;49035;48.812;11.762;2023-01-04T00:05:55;31.87;;;15.83;;
22160;SDS011;49035;48.812;11.762;2023-01-04T00:08:22;27.17;;;14.70;;
22160;SDS011;49035;48.812;11.762;2023-01-04T00:10:47;27.37;;;16.10;;
22160;SDS011;49035;48.812;11.762;2023-01-04T00:13:13;26.37;;;16.07;;
22160;SDS011;49035;48.812;11.762;2023-01-04T00:15:39;24.20;;;15.07;;
22160;SDS011;49035;48.812;11.762;2023-01-04T00:18:04;25.10;;;14.67;;
22160;SDS011;49035;48.812;11.762;2023-01-04T00:20:30;39.73;;;16.57;;
22160;SDS011;49035;48.812;11.762;2023-01-04T00:22:56;33.40;;;16.00;;
22160;SDS011;49035;48.812;11.762;2023-01-04T00:25:22;21.70;;;14.27;;
22160;SDS011;49035;48.812;11.762;2023-01-04T00:27:49;43.63;;;17.40;;
22160;SDS011;49035;48.812;11.762;2023-01-04T00:30:15;54.63;;;16.50;;
22160;SDS011;49035;48.812;11.762;2023-01-04T00:32:41;23.97;;;14.27;;
22160;SDS011;49035;48.812;11.762;2023-01-04T00:35:07;48.90;;;17.17;;
22160;SDS011;49035;48.812;11.762;2023-01-04T00:37:33;23.13;;;13.70;;
22160;SDS011;49035;48.812;11.762;2023-01-04T00:39:58;25.57;;;13.57;;
22160;SDS011;49035;48.812;11.762;2023-01-04T00:42:24;22.13;;;13.67;;
22160;SDS011;49035;48.812;11.762;2023-01-04T00:44:49;25.63;;;14.40;;
22160;SDS011;49035;48.812;11.762;2023-01-04T00:47:15;33.10;;;14.80;;
22160;SDS011;49035;48.812;11.762;2023-01-04T00:49:41;43.40;;;17.53;;
22160;SDS011;49035;48.812;11.762;2023-01-04T00:52:06;34.53;;;16.40;;
22160;SDS011;49035;48.812;11.762;2023-01-04T00:54:32;25.63;;;14.53;;
22160;SDS011;49035;48.812;11.762;2023-01-04T00:56:58;38.43;;;16.37;;
22160;SDS011;49035;48.812;11.762;2023-01-04T00:59:25;21.47;;;12.83;;
22160;SDS011;49035;48.812;11.762;2023-01-04T01:01:51;36.17;;;13.87;;
22160;SDS011;49035;48.812;11.762;2023-01-04T01:04:17;26.53;;;12.97;;
22160;SDS011;49035;48.812;11.762;2023-01-04T01:06:45;18.93;;;11.77;;
22160;SDS011;49035;48.812;11.762;2023-01-04T01:09:11;18.77;;;11.87;;
22160;SDS011;49035;48.812;11.762;2023-01-04T01:11:36;17.87;;;10.77;;
22160;SDS011;49035;48.812;11.762;2023-01-04T01:14:03;23.87;;;13.27;;
22160;SDS011;49035;48.812;11.762;2023-01-04T01:16:30;31.57;;;14.90;;
22160;SDS011;49035;48.812;11.762;2023-01-04T01:18:55;24.43;;;13.10;;
22160;SDS011;49035;48.812;11.762;2023-01-04T01:21:22;22.47;;;13.87;;
22160;SDS011;49035;48.812;11.762;2023-01-04T01:23:49;21.80;;;13.07;;
22160;SDS011;49035;48.812;11.762;2023-01-04T01:26:17;26.40;;;14.00;;
22160;SDS011;49035;48.812;11.762;2023-01-04T01:28:44;38.97;;;15.27;;
22160;SDS011;49035;48.812;11.762;2023-01-04T01:31:11;19.70;;;12.80;;
22160;SDS011;49035;48.812;11.762;2023-01-04T01:33:43;23.93;;;14.10;;
22160;SDS011;49035;48.812;11.762;2023-01-04T01:36:11;26.47;;;14.80;;
22160;SDS011;49035;48.812;11.762;2023-01-04T01:38:37;31.23;;;14.70;;
22160;SDS011;49035;48.812;11.762;2023-01-04T01:41:04;35.37;;;15.60;;
22160;SDS011;49035;48.812;11.762;2023-01-04T01:46:27;30.60;;;15.40;;
22160;SDS011;49035;48.812;11.762;2023-01-04T01:49:24;38.50;;;17.30;;
22160;SDS011;49035;48.812;11.762;2023-01-04T01:52:04;44.77;;;16.97;;
22160;SDS011;49035;48.812;11.762;2023-01-04T01:54:40;34.37;;;16.47;;
22160;SDS011;49035;48.812;11.762;2023-01-04T01:57:13;26.90;;;14.97;;
22160;SDS011;49035;48.812;11.762;2023-01-04T01:59:42;33.67;;;15.80;;
22160;SDS011;49035;48.812;11.762;2023-01-04T02:02:09;29.23;;;15.83;;
22160;SDS011;49035;48.812;11.762;2023-01-04T02:04:36;75.67;;;20.67;;
22160;SDS011;49035;48.812;11.762;2023-01-04T02:07:04;33.07;;;15.67;;
22160;SDS011;49035;48.812;11.762;2023-01-04T02:09:30;35.30;;;15.87;;
22160;SDS011;49035;48.812;11.762;2023-01-04T02:11:57;37.07;;;15.77;;
22160;SDS011;49035;48.812;11.762;2023-01-04T02:14:22;30.17;;;14.53;;
22160;SDS011;49035;48.812;11.762;2023-01-04T02:30:50;34.50;;;14.80;;
22160;SDS011;49035;48.812;11.762;2023-01-04T02:41:36;28.97;;;12.70;;
22160;SDS011;49035;48.812;11.762;2023-01-04T02:44:23;31.77;;;12.17;;
22160;SDS011;49035;48.812;11.762;2023-01-04T02:47:13;39.47;;;13.33;;
22160;SDS011;49035;48.812;11.762;2023-01-04T02:50:08;32.97;;;12.73;;
22160;SDS011;49035;48.812;11.762;2023-01-04T02:52:58;27.63;;;13.23;;
22160;SDS011;49035;48.812;11.762;2023-01-04T03:07:23;34.27;;;12.30;;
22160;SDS011;49035;48.812;11.762;2023-01-04T03:10:01;86.13;;;14.10;;
22160;SDS011;49035;48.812;11.762;2023-01-04T03:12:40;46.83;;;13.77;;
22160;SDS011;49035;48.812;11.762;2023-01-04T03:20:45;26.80;;;12.03;;
22160;SDS011;49035;48.812;11.762;2023-01-04T03:23:14;51.07;;;13.63;;
22160;SDS011;49035;48.812;11.762;2023-01-04T03:26:02;47.10;;;13.40;;
22160;SDS011;49035;48.812;11.762;2023-01-04T03:28:51;29.60;;;12.43;;
22160;SDS011;49035;48.812;11.762;2023-01-04T03:31:38;31.17;;;13.07;;
22160;SDS011;49035;48.812;11.762;2023-01-04T03:34:26;37.07;;;13.33;;
22160;SDS011;49035;48.812;11.762;2023-01-04T03:39:44;29.93;;;11.60;;
22160;SDS011;49035;48.812;11.762;2023-01-04T03:42:35;37.93;;;12.50;;
22160;SDS011;49035;48.812;11.762;2023-01-04T03:45:46;29.90;;;12.30;;
22160;SDS011;49035;48.812;11.762;2023-01-04T03:48:39;31.67;;;12.20;;
22160;SDS011;49035;48.812;11.762;2023-01-04T03:51:14;38.70;;;12.70;;
22160;SDS011;49035;48.812;11.762;2023-01-04T03:54:29;32.60;;;13.00;;
22160;SDS011;49035;48.812;11.762;2023-01-04T03:56:47;35.60;;;13.60;;
22160;SDS011;49035;48.812;11.762;2023-01-04T03:59:14;35.30;;;12.90;;
22160;SDS011;49035;48.812;11.762;2023-01-04T04:01:41;41.70;;;14.50;;
22160;SDS011;49035;48.812;11.762;2023-01-04T04:04:07;34.20;;;13.10;;
22160;SDS011;49035;48.812;11.762;2023-01-04T04:06:52;39.83;;;14.20;;
22160;SDS011;49035;48.812;11.762;2023-01-04T04:09:36;48.67;;;13.87;;
22160;SDS011;49035;48.812;11.762;2023-01-04T04:12:02;44.03;;;13.60;;
22160;SDS011;49035;48.812;11.762;2023-01-04T04:14:28;57.50;;;14.43;;
22160;SDS011;49035;48.812;11.762;2023-01-04T04:16:53;38.73;;;14.40;;
22160;SDS011;49035;48.812;11.762;2023-01-04T04:19:19;44.50;;;14.57;;
22160;SDS011;49035;48.812;11.762;2023-01-04T04:21:45;43.23;;;14.60;;
22160;SDS011;49035;48.812;11.762;2023-01-04T04:24:15;42.37;;;14.33;;
22160;SDS011;49035;48.812;11.762;2023-01-04T04:26:42;70.13;;;15.03;;
22160;SDS011;49035;48.812;11.762;2023-01-04T04:29:08;42.60;;;13.47;;
22160;SDS011;49035;48.812;11.762;2023-01-04T04:31:34;40.13;;;13.30;;
22160;SDS011;49035;48.812;11.762;2023-01-04T04:33:59;45.90;;;14.53;;
22160;SDS011;49035;48.812;11.762;2023-01-04T04:36:25;36.23;;;14.23;;
22160;SDS011;49035;48.812;11.762;2023-01-04T04:38:50;43.00;;;15.03;;
22160;SDS011;49035;48.812;11.762;2023-01-04T04:41:16;47.87;;;15.37;;
22160;SDS011;49035;48.812;11.762;2023-01-04T04:44:00;39.17;;;15.30;;
22160;SDS011;49035;48.812;11.762;2023-01-04T04:46:26;45.23;;;15.37;;
22160;SDS011;49035;48.812;11.762;2023-01-04T04:48:51;45.27;;;14.80;;
22160;SDS011;49035;48.812;11.762;2023-01-04T04:51:17;51.90;;;13.87;;
22160;SDS011;49035;48.812;11.762;2023-01-04T04:53:43;56.43;;;15.87;;
22160;SDS011;49035;48.812;11.762;2023-01-04T04:56:09;62.50;;;15.20;;
22160;SDS011;49035;48.812;11.762;2023-01-04T04:58:35;43.80;;;14.93;;
22160;SDS011;49035;48.812;11.762;2023-01-04T05:01:01;54.80;;;15.13;;
22160;SDS011;49035;48.812;11.762;2023-01-04T05:03:27;45.70;;;15.33;;
22160;SDS011;49035;48.812;11.762;2023-01-04T05:05:52;45.10;;;14.27;;
22160;SDS011;49035;48.812;11.762;2023-01-04T05:08:18;50.40;;;15.53;;
22160;SDS011;49035;48.812;11.762;2023-01-04T05:10:44;49.40;;;14.13;;
22160;SDS011;49035;48.812;11.762;2023-01-04T05:13:10;50.77;;;15.43;;
22160;SDS011;49035;48.812;11.762;2023-01-04T05:15:47;43.80;;;11.93;;
22160;SDS011;49035;48.812;11.762;2023-01-04T05:18:15;45.53;;;13.77;;
22160;SDS011;49035;48.812;11.762;2023-01-04T05:20:42;45.53;;;13.03;;
22160;SDS011;49035;48.812;11.762;2023-01-04T05:23:09;51.10;;;14.33;;
22160;SDS011;49035;48.812;11.762;2023-01-04T05:25:36;51.53;;;14.57;;
22160;SDS011;49035;48.812;11.762;2023-01-04T05:28:02;45.77;;;15.47;;
22160;SDS011;49035;48.812;11.762;2023-01-04T05:30:28;57.90;;;14.33;;
22160;SDS011;49035;48.812;11.762;2023-01-04T05:33:12;63.37;;;15.73;;
22160;SDS011;49035;48.812;11.762;2023-01-04T05:35:38;58.90;;;15.27;;
22160;SDS011;49035;48.812;11.762;2023-01-04T05:38:03;51.10;;;13.57;;
22160;SDS011;49035;48.812;11.762;2023-01-04T05:40:29;44.23;;;12.93;;
22160;SDS011;49035;48.812;11.762;2023-01-04T05:42:55;48.40;;;13.60;;
22160;SDS011;49035;48.812;11.762;2023-01-04T05:45:21;51.30;;;15.90;;
22160;SDS011;49035;48.812;11.762;2023-01-04T05:47:50;68.63;;;16.90;;
22160;SDS011;49035;48.812;11.762;2023-01-04T05:50:18;49.83;;;15.63;;
22160;SDS011;49035;48.812;11.762;2023-01-04T05:52:45;57.67;;;18.70;;
22160;SDS011;49035;48.812;11.762;2023-01-04T05:55:11;62.67;;;17.77;;
22160;SDS011;49035;48.812;11.762;2023-01-04T05:57:37;74.43;;;15.97;;
22160;SDS011;49035;48.812;11.762;2023-01-04T06:00:04;64.63;;;13.97;;
22160;SDS011;49035;48.812;11.762;2023-01-04T06:02:31;42.37;;;13.97;;
22160;SDS011;49035;48.812;11.762;2023-01-04T06:04:57;61.93;;;16.13;;
22160;SDS011;49035;48.812;11.762;2023-01-04T06:07:24;43.23;;;14.73;;
22160;SDS011;49035;48.812;11.762;2023-01-04T06:09:51;50.80;;;14.73;;
22160;SDS011;49035;48.812;11.762;2023-01-04T06:12:17;62.20;;;16.57;;
22160;SDS011;49035;48.812;11.762;2023-01-04T06:14:43;53.27;;;16.03;;
22160;SDS011;49035;48.812;11.762;2023-01-04T06:17:08;49.10;;;15.83;;
22160;SDS011;49035;48.812;11.762;2023-01-04T06:19:34;44.80;;;14.80;;
22160;SDS011;49035;48.812;11.762;2023-01-04T06:22:00;49.37;;;15.50;;
22160;SDS011;49035;48.812;11.762;2023-01-04T06:24:25;45.47;;;16.30;;
22160;SDS011;49035;48.812;11.762;2023-01-04T06:26:51;49.37;;;15.40;;
22160;SDS011;49035;48.812;11.762;2023-01-04T06:29:16;38.03;;;13.60;;
22160;SDS011;49035;48.812;11.762;2023-01-04T06:31:42;43.10;;;14.37;;
22160;SDS011;49035;48.812;11.762;2023-01-04T06:34:12;50.47;;;14.43;;
22160;SDS011;49035;48.812;11.762;2023-01-04T06:36:38;38.80;;;13.97;;
22160;SDS011;49035;48.812;11.762;2023-01-04T06:39:05;51.63;;;15.37;;
22160;SDS011;49035;48.812;11.762;2023-01-04T06:41:32;42.70;;;14.90;;
22160;SDS011;49035;48.812;11.762;2023-01-04T06:43:58;45.73;;;14.93;;
22160;SDS011;49035;48.812;11.762;2023-01-04T06:46:24;35.07;;;12.67;;
22160;SDS011;49035;48.812;11.762;2023-01-04T06:48:49;41.50;;;14.80;;
22160;SDS011;49035;48.812;11.762;2023-01-04T06:51:17;43.67;;;15.53;;
22160;SDS011;49035;48.812;11.762;2023-01-04T06:53:43;49.80;;;15.23;;
22160;SDS011;49035;48.812;11.762;2023-01-04T06:56:09;49.70;;;15.43;;
22160;SDS011;49035;48.812;11.762;2023-01-04T06:58:35;43.03;;;14.73;;
22160;SDS011;49035;48.812;11.762;2023-01-04T07:01:01;48.17;;;13.27;;
22160;SDS011;49035;48.812;11.762;2023-01-04T07:03:26;56.00;;;14.30;;
22160;SDS011;49035;48.812;11.762;2023-01-04T07:05:52;34.67;;;12.97;;
22160;SDS011;49035;48.812;11.762;2023-01-04T07:08:18;47.47;;;13.87;;
22160;SDS011;49035;48.812;11.762;2023-01-04T07:10:43;39.47;;;12.83;;
22160;SDS011;49035;48.812;11.762;2023-01-04T07:13:09;39.50;;;13.37;;
22160;SDS011;49035;48.812;11.762;2023-01-04T07:15:35;38.03;;;14.17;;
22160;SDS011;49035;48.812;11.762;2023-01-04T07:18:01;45.87;;;15.37;;
22160;SDS011;49035;48.812;11.762;2023-01-04T07:20:26;51.57;;;16.03;;
22160;SDS011;49035;48.812;11.762;2023-01-04T07:22:52;58.13;;;16.03;;
22160;SDS011;49035;48.812;11.762;2023-01-04T07:25:18;53.77;;;15.27;;
22160;SDS011;49035;48.812;11.762;2023-01-04T07:27:43;49.23;;;13.30;;
22160;SDS011;49035;48.812;11.762;2023-01-04T07:30:09;40.03;;;14.17;;
22160;SDS011;49035;48.812;11.762;2023-01-04T07:32:35;52.37;;;14.67;;
22160;SDS011;49035;48.812;11.762;2023-01-04T07:35:01;44.20;;;15.80;;
22160;SDS011;49035;48.812;11.762;2023-01-04T07:37:26;42.73;;;14.27;;
22160;SDS011;49035;48.812;11.762;2023-01-04T07:39:52;53.43;;;14.10;;
22160;SDS011;49035;48.812;11.762;2023-01-04T07:42:17;56.20;;;17.97;;
22160;SDS011;49035;48.812;11.762;2023-01-04T07:44:44;57.03;;;17.17;;
22160;SDS011;49035;48.812;11.762;2023-01-04T07:47:10;45.73;;;15.77;;
22160;SDS011;49035;48.812;11.762;2023-01-04T07:49:35;58.63;;;17.03;;
22160;SDS011;49035;48.812;11.762;2023-01-04T07:52:01;55.13;;;17.97;;
22160;SDS011;49035;48.812;11.762;2023-01-04T07:54:27;45.97;;;16.80;;
22160;SDS011;49035;48.812;11.762;2023-01-04T07:56:52;61.33;;;20.37;;
22160;SDS011;49035;48.812;11.762;2023-01-04T07:59:18;64.80;;;23.13;;
22160;SDS011;49035;48.812;11.762;2023-01-04T08:01:45;64.63;;;21.17;;
22160;SDS011;49035;48.812;11.762;2023-01-04T08:04:12;56.67;;;22.17;;
22160;SDS011;49035;48.812;11.762;2023-01-04T08:06:41;58.23;;;18.83;;
22160;SDS011;49035;48.812;11.762;2023-01-04T08:09:07;55.77;;;18.63;;
22160;SDS011;49035;48.812;11.762;2023-01-04T08:11:36;58.30;;;19.80;;
22160;SDS011;49035;48.812;11.762;2023-01-04T08:14:02;76.00;;;19.83;;
22160;SDS011;49035;48.812;11.762;2023-01-04T08:16:29;57.90;;;20.07;;
22160;SDS011;49035;48.812;11.762;2023-01-04T08:18:59;67.40;;;20.77;;
22160;SDS011;49035;48.812;11.762;2023-01-04T08:21:27;72.70;;;21.40;;
22160;SDS011;49035;48.812;11.762;2023-01-04T08:23:54;53.60;;;19.67;;
22160;SDS011;49035;48.812;11.762;2023-01-04T08:26:20;70.30;;;20.27;;
22160;SDS011;49035;48.812;11.762;2023-01-04T08:28:46;66.97;;;20.00;;
22160;SDS011;49035;48.812;11.762;2023-01-04T08:31:13;76.33;;;20.80;;
22160;SDS011;49035;48.812;11.762;2023-01-04T08:33:44;72.57;;;20.73;;
22160;SDS011;49035;48.812;11.762;2023-01-04T08:36:11;60.03;;;18.63;;
22160;SDS011;49035;48.812;11.762;2023-01-04T08:38:48;49.40;;;18.20;;
22160;SDS011;49035;48.812;11.762;2023-01-04T08:41:16;63.43;;;19.60;;
22160;SDS011;49035;48.812;11.762;2023-01-04T08:43:42;53.17;;;20.17;;
22160;SDS011;49035;48.812;11.762;2023-01-04T08:46:08;54.43;;;18.70;;
22160;SDS011;49035;48.812;11.762;2023-01-04T08:48:35;47.93;;;18.00;;
22160;SDS011;49035;48.812;11.762;2023-01-04T08:51:02;46.47;;;19.37;;
22160;SDS011;49035;48.812;11.762;2023-01-04T08:53:30;52.73;;;18.93;;
22160;SDS011;49035;48.812;11.762;2023-01-04T08:55:56;56.00;;;18.70;;
22160;SDS011;49035;48.812;11.762;2023-01-04T08:58:25;45.38;;;17.70;;
22160;SDS011;49035;48.812;11.762;2023-01-04T09:00:51;41.17;;;17.17;;
22160;SDS011;49035;48.812;11.762;2023-01-04T09:03:18;54.77;;;18.33;;
22160;SDS011;49035;48.812;11.762;2023-01-04T09:05:44;42.60;;;17.50;;
22160;SDS011;49035;48.812;11.762;2023-01-04T09:08:10;46.35;;;18.67;;
22160;SDS011;49035;48.812;11.762;2023-01-04T09:10:39;36.80;;;16.27;;
22160;SDS011;49035;48.812;11.762;2023-01-04T09:13:05;35.45;;;16.40;;
22160;SDS011;49035;48.812;11.762;2023-01-04T09:15:31;32.92;;;14.73;;
22160;SDS011;49035;48.812;11.762;2023-01-04T09:17:57;28.15;;;14.63;;
22160;SDS011;49035;48.812;11.762;2023-01-04T09:20:23;27.98;;;14.13;;
22160;SDS011;49035;48.812;11.762;2023-01-04T09:22:48;27.92;;;12.82;;
22160;SDS011;49035;48.812;11.762;2023-01-04T09:25:14;26.08;;;13.05;;
22160;SDS011;49035;48.812;11.762;2023-01-04T09:27:39;25.70;;;13.02;;
22160;SDS011;49035;48.812;11.762;2023-01-04T09:30:05;25.00;;;12.07;;
22160;SDS011;49035;48.812;11.762;2023-01-04T09:32:32;18.00;;;10.70;;
22160;SDS011;49035;48.812;11.762;2023-01-04T09:34:57;22.65;;;11.70;;
22160;SDS011;49035;48.812;11.762;2023-01-04T09:37:23;18.40;;;10.20;;
22160;SDS011;49035;48.812;11.762;2023-01-04T09:39:48;19.30;;;10.75;;
22160;SDS011;49035;48.812;11.762;2023-01-04T09:42:15;16.88;;;9.85;;
22160;SDS011;49035;48.812;11.762;2023-01-04T09:44:49;16.30;;;9.70;;
22160;SDS011;49035;48.812;11.762;2023-01-04T09:49:51;15.82;;;9.90;;
22160;SDS011;49035;48.812;11.762;2023-01-04T09:55:45;14.60;;;8.90;;
22160;SDS011;49035;48.812;11.762;2023-01-04T09:58:30;12.02;;;8.15;;
22160;SDS011;49035;48.812;11.762;2023-01-04T10:03:34;14.15;;;8.48;;
22160;SDS011;49035;48.812;11.762;2023-01-04T10:06:02;12.52;;;8.10;;
22160;SDS011;49035;48.812;11.762;2023-01-04T10:08:30;12.85;;;7.57;;
22160;SDS011;49035;48.812;11.762;2023-01-04T10:11:00;11.50;;;7.28;;
22160;SDS011;49035;48.812;11.762;2023-01-04T10:16:24;11.50;;;7.60;;
22160;SDS011;49035;48.812;11.762;2023-01-04T10:19:01;11.35;;;7.30;;
22160;SDS011;49035;48.812;11.762;2023-01-04T10:22:05;11.30;;;7.30;;
22160;SDS011;49035;48.812;11.762;2023-01-04T10:24:49;12.30;;;7.70;;
22160;SDS011;49035;48.812;11.762;2023-01-04T10:30:29;13.07;;;7.38;;
22160;SDS011;49035;48.812;11.762;2023-01-04T10:33:21;10.40;;;6.30;;
22160;SDS011;49035;48.812;11.762;2023-01-04T10:35:52;9.80;;;6.93;;
22160;SDS011;49035;48.812;11.762;2023-01-04T10:38:22;10.23;;;6.55;;
22160;SDS011;49035;48.812;11.762;2023-01-04T10:40:51;9.68;;;6.30;;
22160;SDS011;49035;48.812;11.762;2023-01-04T10:43:25;7.97;;;5.57;;
22160;SDS011;49035;48.812;11.762;2023-01-04T10:45:59;9.90;;;6.70;;
22160;SDS011;49035;48.812;11.762;2023-01-04T10:48:43;10.70;;;6.07;;
22160;SDS011;49035;48.812;11.762;2023-01-04T10:51:31;8.52;;;5.63;;
22160;SDS011;49035;48.812;11.762;2023-01-04T10:54:02;8.52;;;5.40;;
22160;SDS011;49035;48.812;11.762;2023-01-04T10:56:50;8.98;;;5.72;;
22160;SDS011;49035;48.812;11.762;2023-01-04T11:04:43;9.02;;;5.65;;
22160;SDS011;49035;48.812;11.762;2023-01-04T11:07:39;6.95;;;5.20;;
22160;SDS011;49035;48.812;11.762;2023-01-04T11:11:02;8.15;;;5.60;;
22160;SDS011;49035;48.812;11.762;2023-01-04T11:13:04;7.40;;;5.20;;
22160;SDS011;49035;48.812;11.762;2023-01-04T11:15:30;7.43;;;5.13;;
22160;SDS011;49035;48.812;11.762;2023-01-04T11:17:56;7.43;;;4.85;;
22160;SDS011;49035;48.812;11.762;2023-01-04T11:20:26;6.20;;;4.63;;
22160;SDS011;49035;48.812;11.762;2023-01-04T11:22:52;7.13;;;4.72;;
22160;SDS011;49035;48.812;11.762;2023-01-04T11:25:34;7.68;;;4.72;;
22160;SDS011;49035;48.812;11.762;2023-01-04T11:28:17;6.10;;;4.55;;
22160;SDS011;49035;48.812;11.762;2023-01-04T11:33:27;6.55;;;3.90;;
22160;SDS011;49035;48.812;11.762;2023-01-04T11:35:53;4.80;;;3.35;;
22160;SDS011;49035;48.812;11.762;2023-01-04T11:38:24;4.13;;;3.50;;
22160;SDS011;49035;48.812;11.762;2023-01-04T11:41:01;4.53;;;3.40;;
22160;SDS011;49035;48.812;11.762;2023-01-04T11:43:33;5.43;;;3.42;;
22160;SDS011;49035;48.812;11.762;2023-01-04T11:48:51;3.92;;;3.13;;
22160;SDS011;49035;48.812;11.762;2023-01-04T11:51:18;3.63;;;3.22;;
22160;SDS011;49035;48.812;11.762;2023-01-04T11:54:26;3.33;;;2.85;;
22160;SDS011;49035;48.812;11.762;2023-01-04T11:59:28;3.65;;;2.75;;
22160;SDS011;49035;48.812;11.762;2023-01-04T12:04:55;3.92;;;2.95;;
22160;SDS011;49035;48.812;11.762;2023-01-04T12:09:49;4.18;;;2.60;;
22160;SDS011;49035;48.812;11.762;2023-01-04T12:12:15;4.00;;;2.60;;
22160;SDS011;49035;48.812;11.762;2023-01-04T12:14:43;6.18;;;2.70;;
22160;SDS011;49035;48.812;11.762;2023-01-04T12:17:14;3.15;;;2.00;;
22160;SDS011;49035;48.812;11.762;2023-01-04T12:19:50;3.38;;;2.40;;
22160;SDS011;49035;48.812;11.762;2023-01-04T12:22:30;4.00;;;2.45;;
22160;SDS011;49035;48.812;11.762;2023-01-04T12:25:00;2.60;;;2.20;;
22160;SDS011;49035;48.812;11.762;2023-01-04T12:27:28;3.42;;;2.13;;
22160;SDS011;49035;48.812;11.762;2023-01-04T12:29:55;3.67;;;1.70;;
22160;SDS011;49035;48.812;11.762;2023-01-04T12:34:51;5.53;;;2.10;;
22160;SDS011;49035;48.812;11.762;2023-01-04T12:45:39;2.88;;;2.08;;
22160;SDS011;49035;48.812;11.762;2023-01-04T12:51:25;2.30;;;1.70;;
22160;SDS011;49035;48.812;11.762;2023-01-04T12:53:53;3.75;;;1.95;;
22160;SDS011;49035;48.812;11.762;2023-01-04T12:59:32;3.38;;;1.80;;
22160;SDS011;49035;48.812;11.762;2023-01-04T13:02:33;2.35;;;2.08;;
22160;SDS011;49035;48.812;11.762;2023-01-04T13:05:44;3.13;;;2.13;;
22160;SDS011;49035;48.812;11.762;2023-01-04T13:07:44;2.53;;;1.75;;
22160;SDS011;49035;48.812;11.762;2023-01-04T13:10:30;3.35;;;1.73;;
22160;SDS011;49035;48.812;11.762;2023-01-04T13:13:12;2.00;;;1.80;;
22160;SDS011;49035;48.812;11.762;2023-01-04T13:18:52;2.03;;;1.55;;
22160;SDS011;49035;48.812;11.762;2023-01-04T13:21:27;1.70;;;1.60;;
22160;SDS011;49035;48.812;11.762;2023-01-04T13:24:29;3.05;;;1.50;;
22160;SDS011;49035;48.812;11.762;2023-01-04T13:26:54;2.47;;;1.60;;
22160;SDS011;49035;48.812;11.762;2023-01-04T13:34:26;1.95;;;1.70;;
22160;SDS011;49035;48.812;11.762;2023-01-04T13:39:36;2.08;;;1.70;;
22160;SDS011;49035;48.812;11.762;2023-01-04T13:47:26;1.48;;;1.38;;
22160;SDS011;49035;48.812;11.762;2023-01-04T13:49:53;2.22;;;2.00;;
22160;SDS011;49035;48.812;11.762;2023-01-04T13:52:23;3.95;;;1.30;;
22160;SDS011;49035;48.812;11.762;2023-01-04T13:54:49;2.03;;;1.65;;
22160;SDS011;49035;48.812;11.762;2023-01-04T13:57:18;1.58;;;1.40;;
22160;SDS011;49035;48.812;11.762;2023-01-04T13:59:49;2.10;;;1.38;;
22160;SDS011;49035;48.812;11.762;2023-01-04T14:02:16;2.50;;;1.73;;
22160;SDS011;49035;48.812;11.762;2023-01-04T14:04:43;2.58;;;1.67;;
22160;SDS011;49035;48.812;11.762;2023-01-04T14:07:11;2.65;;;1.58;;
22160;SDS011;49035;48.812;11.762;2023-01-04T14:09:46;2.63;;;1.75;;
22160;SDS011;49035;48.812;11.762;2023-01-04T14:12:19;2.05;;;1.83;;
22160;SDS011;49035;48.812;11.762;2023-01-04T14:14:54;2.72;;;2.22;;
22160;SDS011;49035;48.812;11.762;2023-01-04T14:17:26;3.97;;;1.80;;
22160;SDS011;49035;48.812;11.762;2023-01-04T14:24:57;2.50;;;1.73;;
22160;SDS011;49035;48.812;11.762;2023-01-04T14:27:37;2.72;;;2.00;;
22160;SDS011;49035;48.812;11.762;2023-01-04T14:30:14;3.10;;;2.28;;
22160;SDS011;49035;48.812;11.762;2023-01-04T14:33:01;3.00;;;2.13;;
22160;SDS011;49035;48.812;11.762;2023-01-04T14:35:38;3.30;;;2.22;;
22160;SDS011;49035;48.812;11.762;2023-01-04T14:38:04;2.80;;;1.75;;
22160;SDS011;49035;48.812;11.762;2023-01-04T14:40:35;2.00;;;1.80;;
22160;SDS011;49035;48.812;11.762;2023-01-04T14:43:02;3.10;;;1.92;;
22160;SDS011;49035;48.812;11.762;2023-01-04T14:45:47;2.58;;;1.90;;
22160;SDS011;49035;48.812;11.762;2023-01-04T14:48:13;2.10;;;1.88;;
22160;SDS011;49035;48.812;11.762;2023-01-04T14:50:39;3.75;;;2.03;;
22160;SDS011;49035;48.812;11.762;2023-01-04T14:53:04;1.60;;;1.50;;
22160;SDS011;49035;48.812;11.762;2023-01-04T14:55:30;2.00;;;1.65;;
22160;SDS011;49035;48.812;11.762;2023-01-04T14:57:55;2.80;;;1.85;;
22160;SDS011;49035;48.812;11.762;2023-01-04T15:00:21;3.17;;;2.13;;
22160;SDS011;49035;48.812;11.762;2023-01-04T15:02:47;2.20;;;2.00;;
22160;SDS011;49035;48.812;11.762;2023-01-04T15:05:15;2.13;;;2.03;;
22160;SDS011;49035;48.812;11.762;2023-01-04T15:07:43;2.08;;;1.88;;
22160;SDS011;49035;48.812;11.762;2023-01-04T15:10:20;2.38;;;1.88;;
22160;SDS011;49035;48.812;11.762;2023-01-04T15:12:47;1.70;;;1.60;;
22160;SDS011;49035;48.812;11.762;2023-01-04T15:15:13;3.78;;;1.80;;
22160;SDS011;49035;48.812;11.762;2023-01-04T15:17:39;2.95;;;2.15;;
22160;SDS011;49035;48.812;11.762;2023-01-04T15:20:05;2.80;;;1.90;;
22160;SDS011;49035;48.812;11.762;2023-01-04T15:22:31;2.53;;;1.90;;
22160;SDS011;49035;48.812;11.762;2023-01-04T15:24:57;2.33;;;1.70;;
22160;SDS011;49035;48.812;11.762;2023-01-04T15:27:22;2.90;;;1.70;;
22160;SDS011;49035;48.812;11.762;2023-01-04T15:29:48;3.20;;;1.90;;
22160;SDS011;49035;48.812;11.762;2023-01-04T15:32:14;2.10;;;1.70;;
22160;SDS011;49035;48.812;11.762;2023-01-04T15:34:39;2.10;;;1.90;;
22160;SDS011;49035;48.812;11.762;2023-01-04T15:37:06;2.17;;;1.80;;
22160;SDS011;49035;48.812;11.762;2023-01-04T15:39:32;3.00;;;1.95;;
22160;SDS011;49035;48.812;11.762;2023-01-04T15:41:57;4.57;;;2.08;;
22160;SDS011;49035;48.812;11.762;2023-01-04T15:44:42;3.33;;;2.15;;
22160;SDS011;49035;48.812;11.762;2023-01-04T15:47:07;3.10;;;2.10;;
22160;SDS011;49035;48.812;11.762;2023-01-04T15:49:33;2.60;;;1.80;;
22160;SDS011;49035;48.812;11.762;2023-01-04T15:51:58;2.42;;;1.90;;
22160;SDS011;49035;48.812;11.762;2023-01-04T15:54:25;1.90;;;1.67;;
22160;SDS011;49035;48.812;11.762;2023-01-04T15:56:51;3.33;;;1.80;;
22160;SDS011;49035;48.812;11.762;2023-01-04T15:59:17;4.22;;;1.85;;
22160;SDS011;49035;48.812;11.762;2023-01-04T16:01:43;4.82;;;2.10;;
22160;SDS011;49035;48.812;11.762;2023-01-04T16:04:08;2.47;;;2.03;;
22160;SDS011;49035;48.812;11.762;2023-01-04T16:06:37;2.75;;;2.22;;
22160;SDS011;49035;48.812;11.762;2023-01-04T16:09:04;2.15;;;1.77;;
22160;SDS011;49035;48.812;11.762;2023-01-04T16:11:30;3.00;;;2.30;;
22160;SDS011;49035;48.812;11.762;2023-01-04T16:13:56;2.80;;;1.85;;
22160;SDS011;49035;48.812;11.762;2023-01-04T16:16:23;2.53;;;2.08;;
22160;SDS011;49035;48.812;11.762;2023-01-04T16:18:52;2.42;;;1.92;;
22160;SDS011;49035;48.812;11.762;2023-01-04T16:21:23;4.40;;;2.10;;
22160;SDS011;49035;48.812;11.762;2023-01-04T16:23:51;2.30;;;2.10;;
22160;SDS011;49035;48.812;11.762;2023-01-04T16:26:18;3.30;;;1.95;;
22160;SDS011;49035;48.812;11.762;2023-01-04T16:28:48;3.45;;;2.00;;
22160;SDS011;49035;48.812;11.762;2023-01-04T16:31:18;3.13;;;2.30;;